CheckWX is a tool to help pilots better visualize weather data.  It is not intended as a substitute for an official pre-flight weather briefing.

15:06:25 UTC

OAHR METAR
Herat Airport
Afghanistan
Current

11 mins ago

OAHR 231455Z 17002KT CAVOK 14/M01 Q1019 RMK A3011 BLU
Observed
Mar-23 @ 14:55 UTC
Wind
  • 170° at 2 KTS
Visibility
10,000+ meters
Flight Rules
VFR
Cloud Levels
  • Clear skies
Temperature
14°C / 57°F
Dewpoint
-1°C / 30°F
Humidity
36%
Altimeter
30.09" Hg
Pressure
1018.92 hPa
Previous

1 hour ago

OAHR 231355Z 03004KT CAVOK 16/M02 Q1018 RMK A3008 BLU
Observed
Mar-23 @ 13:55 UTC
Wind
  • 030° at 4 KTS
Visibility
10,000+ meters
Flight Rules
VFR
Cloud Levels
  • Clear skies
Temperature
16°C / 61°F
Dewpoint
-2°C / 28°F
Humidity
29%
Altimeter
30.06" Hg
Pressure
1017.92 hPa
Previous

2 hours ago

OAHR 231255Z 35005KT CAVOK 17/M01 Q1019 RMK A3009 BLU
Observed
Mar-23 @ 12:55 UTC
Wind
  • 350° at 5 KTS
Visibility
10,000+ meters
Flight Rules
VFR
Cloud Levels
  • Clear skies
Temperature
17°C / 63°F
Dewpoint
-1°C / 30°F
Humidity
30%
Altimeter
30.09" Hg
Pressure
1018.92 hPa